Terminal Aerodrome Forecast
Issued by NWS

Home | Current Version | Previous Version | Graphics & Text | Print | Product List | Glossary On
Versions: 1 2 3 4 5 6 7 8 9 10 11 12 13 14 15 16 17 18 19 20 21 22 23 24 25 26 27 28 29 30 31 32 33 34
000
FTUS43 KGRB 241720
TAFRHI
TAF
KRHI 241720Z 2418/2518 14008G14KT P6SM -SHRA BKN080
     FM242200 12009KT P6SM -SHRA SCT022 OVC050
      TEMPO 2422/2424 4SM -SHRA OVC022
     FM250000 10010KT 4SM RA BR SCT008 OVC015
     FM250200 09009KT 3SM RA BR BKN008 WS012/14035KT
     FM251000 15007KT 2SM -RADZ BR BKN003 WS012/19035KT
     FM251500 24008G14KT P6SM VCSH BKN009=

USA.gov is the U.S. government's official web portal to all federal, state and local government web resources and services.